KDVN/DVN METAR and TAF weather

Enter ICAO airport designator
Station Type Date Time Source
KDVN METAR 2019/09/21 03:52 UTC NOAA

KDVN 210352Z AUTO 16009KT 10SM CLR 25/20 A3007 RMK AO2 SLP173 T02500200


Station Type Date Time Source
KDVN Decoded METAR 2019/09/21 03:52 UTC NOAA

DAVENPORT MUNICIPAL AIRPORT, IA, United States (KDVN) 41-37N 90-35W 228M
Sep 20, 2019 - 11:52 PM EDT / 2019.09.21 0352 UTC
Wind: from the SSE (160 degrees) at 10 MPH (9 KT):0
Visibility: 10 mile(s):0
Sky conditions: clear
Temperature: 77.0 F (25.0 C)
Dew Point: 68.0 F (20.0 C)
Relative Humidity: 73%
Pressure (altimeter): 30.07 in. Hg (1018 hPa)
ob: KDVN 210352Z AUTO 16009KT 10SM CLR 25/20 A3007 RMK AO2 SLP173 T02500200
cycle: 4

Station Type Date Time Source
KDVN TAF UTC NOAA

Error!

Example: see airport list